Time;durP1;ratioP1;P1;durP2;ratioP2;P2;SDS_P1;SDS_P2;PMS_P1;PMS_P2;Temp;Humidity;BMP_temperature;BMP_pressure;BME280_temperature;BME280_humidity;BME280_pressure;Samples;Min_cycle;Max_cycle;Signal;HPM_P1;HPM_P2
2022/07/20 00:00:44;;;;;;;7.15;1.27;;;;;;;21.27;46.71;100764.31;5589621;31;33918;-67
2022/07/20 00:03:47;;;;;;;9.02;1.50;;;;;;;21.24;46.82;100764.78;5589316;31;33881;-67
2022/07/20 00:06:50;;;;;;;5.85;2.05;;;;;;;21.17;47.16;100764.03;5588910;31;32559;-67
2022/07/20 00:13:16;;;;;;;4.10;1.40;;;;;;;20.99;48.62;100761.31;5589723;31;34583;-67
2022/07/20 00:16:20;;;;;;;5.00;1.60;;;;;;;20.91;49.34;100756.25;5588752;31;32862;-67
2022/07/20 00:19:23;;;;;;;3.17;1.40;;;;;;;20.83;49.73;100763.59;5588759;31;33245;-67
2022/07/20 00:22:26;;;;;;;3.70;1.40;;;;;;;20.76;49.22;100768.25;5588613;31;34134;-67
2022/07/20 00:25:29;;;;;;;3.00;1.60;;;;;;;20.71;49.36;100751.09;5589479;31;33898;-67
2022/07/20 00:28:32;;;;;;;2.47;1.62;;;;;;;20.64;49.90;100761.94;5589427;31;34262;-67
2022/07/20 00:31:35;;;;;;;4.18;1.40;;;;;;;20.59;49.94;100767.16;5575666;31;32880;-68
2022/07/20 00:34:38;;;;;;;3.72;1.55;;;;;;;20.57;49.98;100757.69;5588495;31;34758;-67
2022/07/20 00:37:42;;;;;;;4.53;1.52;;;;;;;20.54;49.93;100763.50;5589077;31;34464;-67
2022/07/20 00:40:45;;;;;;;2.65;1.50;;;;;;;20.53;49.84;100761.84;5589283;31;34659;-67
2022/07/20 00:44:05;;;;;;;3.30;1.67;;;;;;;20.50;49.96;100765.00;5589175;31;34021;-67
2022/07/20 00:47:08;;;;;;;5.00;1.58;;;;;;;20.47;50.72;100768.97;5588377;31;34298;-67
2022/07/20 00:50:11;;;;;;;4.82;1.50;;;;;;;20.43;50.64;100758.87;5589123;31;34455;-66
2022/07/20 00:53:14;;;;;;;2.55;1.25;;;;;;;20.36;51.27;100765.13;5588252;31;34021;-67
2022/07/20 00:56:17;;;;;;;3.08;1.62;;;;;;;20.33;51.35;100759.37;5588814;31;34577;-67
2022/07/20 00:59:20;;;;;;;4.28;1.58;;;;;;;20.27;51.48;100766.44;5588963;31;33875;-69
2022/07/20 01:02:23;;;;;;;4.12;1.80;;;;;;;20.25;51.70;100765.00;5588953;31;35223;-68
2022/07/20 01:05:26;;;;;;;3.90;1.60;;;;;;;20.19;52.37;100763.19;5588857;31;34649;-67
2022/07/20 01:08:30;;;;;;;2.33;1.30;;;;;;;20.14;52.94;100765.75;5588739;31;34128;-67
2022/07/20 01:11:34;;;;;;;5.32;1.35;;;;;;;20.09;53.11;100771.75;5588729;31;33983;-67
2022/07/20 01:14:37;;;;;;;3.50;1.40;;;;;;;20.05;53.38;100775.94;5590006;31;34581;-68
2022/07/20 01:17:41;;;;;;;3.17;1.60;;;;;;;20.03;54.35;100769.97;5591093;31;33970;-68
2022/07/20 01:20:49;;;;;;;5.60;1.33;;;;;;;19.95;54.53;100762.97;5591258;31;32745;-66
2022/07/20 01:23:53;;;;;;;3.85;1.37;;;;;;;19.89;54.30;100768.44;5591170;31;34411;-68
2022/07/20 01:26:56;;;;;;;1.90;1.37;;;;;;;19.88;54.49;100769.47;5591068;31;35163;-68
2022/07/20 01:29:59;;;;;;;5.00;1.67;;;;;;;19.85;55.95;100770.72;5591071;31;33851;-68
2022/07/20 01:33:02;;;;;;;5.55;1.70;;;;;;;19.79;56.28;100768.09;5590897;31;33946;-67
2022/07/20 01:36:05;;;;;;;3.85;1.60;;;;;;;19.76;55.96;100773.91;5590781;31;34536;-67
2022/07/20 01:39:08;;;;;;;5.55;1.52;;;;;;;19.81;55.90;100774.06;5590855;31;34573;-67
2022/07/20 01:42:11;;;;;;;5.47;1.40;;;;;;;19.76;56.11;100780.09;5590908;31;34398;-67
2022/07/20 01:45:14;;;;;;;7.93;1.83;;;;;;;19.71;56.16;100769.16;5590811;31;34026;-67
2022/07/20 01:48:18;;;;;;;3.22;1.60;;;;;;;19.88;56.50;100780.25;5590212;31;32590;-68
2022/07/20 01:51:20;;;;;;;4.90;1.75;;;;;;;19.79;56.09;100768.09;5591151;31;34206;-68
2022/07/20 01:54:23;;;;;;;8.13;1.77;;;;;;;19.71;56.13;100773.72;5576832;31;32735;-68
2022/07/20 01:57:26;;;;;;;3.00;1.62;;;;;;;19.68;56.76;100772.31;5590556;31;34454;-67
2022/07/20 02:00:29;;;;;;;1.85;1.50;;;;;;;19.82;56.54;100778.41;5590739;31;33974;-67
2022/07/20 02:03:32;;;;;;;2.25;1.50;;;;;;;19.89;56.15;100777.34;5590664;31;34057;-67
2022/07/20 02:06:35;;;;;;;2.37;1.67;;;;;;;19.81;56.52;100768.69;5590561;31;33991;-68
2022/07/20 02:09:37;;;;;;;4.37;1.52;;;;;;;19.77;57.07;100770.16;5590826;31;34570;-67
2022/07/20 02:12:40;;;;;;;2.22;1.30;;;;;;;19.77;58.00;100779.06;5590654;31;33950;-68
2022/07/20 02:19:05;;;;;;;20.77;3.47;;;;;;;19.61;59.13;100776.91;5590622;31;34015;-68
2022/07/20 02:22:07;;;;;;;12.43;3.72;;;;;;;19.56;63.86;100779.41;5590530;31;33961;-67
2022/07/20 02:25:10;;;;;;;3.83;1.65;;;;;;;19.43;64.69;100779.47;5590362;31;34539;-68
2022/07/20 02:28:13;;;;;;;5.10;1.70;;;;;;;19.32;62.57;100774.75;5590466;31;33867;-67
2022/07/20 02:31:18;;;;;;;4.62;1.67;;;;;;;19.23;61.85;100774.19;5582408;31;219295;-67
2022/07/20 02:34:21;;;;;;;5.07;1.92;;;;;;;19.29;62.05;100777.88;5590352;31;34713;-68
2022/07/20 02:37:24;;;;;;;4.20;1.70;;;;;;;19.41;61.57;100770.81;5590016;31;34285;-68
2022/07/20 02:40:27;;;;;;;4.37;1.77;;;;;;;19.61;60.60;100779.59;5590237;31;34183;-68
2022/07/20 02:43:30;;;;;;;2.78;1.70;;;;;;;19.54;60.68;100776.13;5590338;31;33979;-68
2022/07/20 02:46:32;;;;;;;5.00;1.70;;;;;;;19.43;61.05;100771.38;5589527;31;33911;-68
2022/07/20 02:49:35;;;;;;;9.07;1.90;;;;;;;19.31;61.39;100768.59;5590263;31;34148;-68
2022/07/20 02:52:39;;;;;;;4.20;1.80;;;;;;;19.38;61.05;100773.91;5590428;31;35327;-69
2022/07/20 02:55:43;;;;;;;3.00;1.50;;;;;;;19.39;61.14;100775.56;5590014;31;34297;-69
2022/07/20 02:58:46;;;;;;;2.92;1.70;;;;;;;19.39;61.13;100778.25;5590528;31;34710;-69
2022/07/20 03:01:51;;;;;;;2.85;1.60;;;;;;;19.35;61.60;100782.41;5590199;31;33849;-69
2022/07/20 03:04:53;;;;;;;3.30;1.73;;;;;;;19.22;62.22;100782.50;5590211;31;34584;-69
2022/07/20 03:07:56;;;;;;;4.53;2.10;;;;;;;19.13;63.50;100789.97;5590202;31;34316;-69
2022/07/20 03:10:59;;;;;;;6.65;1.85;;;;;;;19.02;63.34;100786.09;5590015;31;34913;-69
2022/07/20 03:14:02;;;;;;;8.35;2.15;;;;;;;18.94;63.24;100794.38;5590144;31;34037;-69
2022/07/20 03:17:04;;;;;;;3.20;2.08;;;;;;;18.91;63.86;100788.59;5589929;31;33680;-69
2022/07/20 03:20:08;;;;;;;4.97;1.80;;;;;;;19.07;63.80;100788.16;5590032;31;33935;-69
2022/07/20 03:23:11;;;;;;;3.33;1.87;;;;;;;19.07;63.78;100796.22;5590006;31;33952;-69
2022/07/20 03:26:15;;;;;;;2.95;1.60;;;;;;;19.01;63.69;100789.00;5589956;31;34060;-69
2022/07/20 03:29:18;;;;;;;4.97;2.03;;;;;;;18.98;63.89;100803.66;5589979;31;34196;-69
2022/07/20 03:32:21;;;;;;;6.00;2.15;;;;;;;18.94;64.40;100798.94;5590042;31;33898;-69
2022/07/20 03:35:24;;;;;;;7.57;2.00;;;;;;;18.90;64.89;100806.59;5589642;31;34852;-69
2022/07/20 03:38:27;;;;;;;9.15;2.08;;;;;;;18.89;65.23;100802.25;5588801;31;34041;-70
2022/07/20 03:41:30;;;;;;;3.35;1.80;;;;;;;18.93;66.00;100810.72;5589671;31;34877;-70
2022/07/20 03:44:33;;;;;;;5.10;2.03;;;;;;;19.12;65.84;100814.41;5589854;31;34113;-70
2022/07/20 03:47:35;;;;;;;4.50;2.00;;;;;;;19.28;65.94;100819.28;5589936;31;34024;-70
2022/07/20 03:50:38;;;;;;;4.03;2.00;;;;;;;19.37;65.72;100828.75;5589829;31;33967;-70
2022/07/20 03:53:41;;;;;;;3.30;1.60;;;;;;;19.44;66.09;100824.22;5589739;31;34266;-69
2022/07/20 03:56:47;;;;;;;5.97;2.05;;;;;;;19.47;66.15;100827.28;5589606;31;33760;-70
2022/07/20 03:59:49;;;;;;;4.75;2.00;;;;;;;19.47;66.10;100826.44;5589671;31;34027;-70
2022/07/20 04:02:52;;;;;;;5.65;1.77;;;;;;;19.48;68.17;100823.56;5590039;31;34019;-70
2022/07/20 04:05:55;;;;;;;3.35;1.90;;;;;;;19.50;66.08;100828.72;5589203;31;33905;-70
2022/07/20 04:08:58;;;;;;;5.20;2.28;;;;;;;19.49;67.52;100835.16;5588903;31;33456;-70
2022/07/20 04:12:03;;;;;;;5.25;2.30;;;;;;;19.51;68.16;100830.37;5588660;31;32965;-70
2022/07/20 04:15:06;;;;;;;7.10;1.95;;;;;;;19.56;67.71;100830.53;5589534;31;35382;-69
2022/07/20 04:18:10;;;;;;;8.15;2.40;;;;;;;19.55;67.82;100838.84;5589606;31;34117;-70
2022/07/20 04:21:13;;;;;;;4.93;2.15;;;;;;;19.63;66.82;100836.72;5588769;31;33564;-70
2022/07/20 04:24:15;;;;;;;4.62;1.83;;;;;;;19.79;66.80;100838.09;5589378;31;33895;-70
2022/07/20 04:27:18;;;;;;;5.60;1.80;;;;;;;19.85;65.65;100837.19;5589317;31;33906;-70
2022/07/20 04:30:22;;;;;;;4.75;1.50;;;;;;;19.94;63.17;100836.72;5589421;31;35145;-70
2022/07/20 04:33:25;;;;;;;4.87;1.75;;;;;;;20.00;62.51;100840.41;5588704;31;33134;-70
2022/07/20 04:36:28;;;;;;;3.40;1.75;;;;;;;20.05;61.93;100837.06;5588074;31;34137;-70
2022/07/20 04:39:30;;;;;;;3.80;1.75;;;;;;;20.12;60.97;100835.16;5588109;31;32773;-70
2022/07/20 04:42:34;;;;;;;7.03;1.75;;;;;;;20.25;61.57;100835.88;5588233;31;34749;-70
2022/07/20 04:45:36;;;;;;;5.97;1.70;;;;;;;20.41;60.22;100841.78;5589221;31;33893;-70
2022/07/20 04:48:39;;;;;;;4.47;1.85;;;;;;;20.48;60.95;100837.19;5588102;31;34010;-70
2022/07/20 04:51:43;;;;;;;4.30;1.90;;;;;;;20.61;61.57;100843.28;5589411;31;34915;-69
2022/07/20 04:54:46;;;;;;;3.67;1.45;;;;;;;20.65;60.24;100843.66;5589004;31;34448;-70
2022/07/20 04:57:48;;;;;;;6.50;1.83;;;;;;;20.58;59.04;100837.47;5588753;31;33908;-70
2022/07/20 05:00:51;;;;;;;3.08;1.65;;;;;;;20.61;58.00;100843.28;5588223;31;33559;-70
2022/07/20 05:03:54;;;;;;;6.20;1.70;;;;;;;20.68;57.58;100851.28;5588782;31;34622;-70
2022/07/20 05:06:57;;;;;;;6.35;2.00;;;;;;;20.74;56.81;100855.78;5588711;31;33976;-70
2022/07/20 05:10:00;;;;;;;7.20;2.05;;;;;;;20.80;57.13;100853.03;5588653;31;34439;-70
2022/07/20 05:13:03;;;;;;;5.12;1.80;;;;;;;20.96;56.67;100856.19;5588349;31;34861;-69
2022/07/20 05:16:06;;;;;;;6.90;1.83;;;;;;;20.96;55.35;100858.91;5588452;31;34568;-69
2022/07/20 05:19:11;;;;;;;4.87;1.62;;;;;;;21.16;55.37;100856.81;5587315;31;32948;-70
2022/07/20 05:22:15;;;;;;;3.45;1.45;;;;;;;21.33;54.48;100851.63;5588468;31;34313;-69
2022/07/20 05:25:18;;;;;;;2.30;1.40;;;;;;;21.41;53.52;100856.72;5587378;31;32844;-69
2022/07/20 05:28:27;;;;;;;7.45;2.20;;;;;;;21.42;52.81;100855.66;5588452;31;34346;-69
2022/07/20 05:31:30;;;;;;;4.70;1.55;;;;;;;21.58;53.05;100860.44;5587848;31;34626;-71
2022/07/20 05:34:32;;;;;;;3.75;1.70;;;;;;;21.77;52.87;100859.34;5587291;31;33531;-69
2022/07/20 05:37:36;;;;;;;4.70;1.70;;;;;;;21.81;52.69;100860.53;5586986;31;34688;-69
2022/07/20 05:40:38;;;;;;;3.35;1.73;;;;;;;21.80;52.08;100860.75;5587861;31;33946;-69
2022/07/20 05:43:41;;;;;;;5.30;1.62;;;;;;;21.92;51.53;100856.22;5587483;31;34775;-69
2022/07/20 05:46:44;;;;;;;3.15;1.35;;;;;;;22.13;51.00;100871.94;5587533;31;34567;-69
2022/07/20 05:49:48;;;;;;;8.40;1.45;;;;;;;22.25;49.25;100871.97;5587773;31;34231;-69
2022/07/20 05:52:51;;;;;;;5.62;2.08;;;;;;;22.36;48.83;100868.47;5587503;31;34112;-69
2022/07/20 05:55:53;;;;;;;6.37;1.73;;;;;;;22.44;47.87;100868.09;5587553;31;34486;-69
2022/07/20 05:58:56;;;;;;;2.90;1.42;;;;;;;22.50;47.33;100865.31;5587025;31;33230;-69
2022/07/20 06:01:59;;;;;;;4.07;1.70;;;;;;;22.57;47.32;100861.63;5589388;31;33726;-69
2022/07/20 06:05:02;;;;;;;5.55;1.67;;;;;;;22.86;47.81;100863.44;5589868;31;33022;-68
2022/07/20 06:08:05;;;;;;;4.07;1.55;;;;;;;22.91;45.95;100867.06;5590547;31;33998;-69
2022/07/20 06:11:08;;;;;;;5.93;1.37;;;;;;;23.13;46.32;100863.75;5590607;31;34068;-70
2022/07/20 06:14:11;;;;;;;6.28;1.40;;;;;;;23.27;46.60;100867.84;5590303;31;34556;-70
2022/07/20 06:17:14;;;;;;;5.85;1.60;;;;;;;23.46;44.63;100863.94;5590337;31;35258;-69
2022/07/20 06:20:17;;;;;;;5.18;1.35;;;;;;;23.63;44.64;100872.94;5590038;31;34161;-69
2022/07/20 06:23:20;;;;;;;2.97;1.35;;;;;;;23.77;43.35;100870.75;5576661;31;32838;-68
2022/07/20 06:26:23;;;;;;;3.50;2.12;;;;;;;23.92;43.32;100878.34;5590186;31;34653;-69
2022/07/20 06:29:26;;;;;;;2.35;1.67;;;;;;;23.93;43.22;100872.69;5590254;31;33978;-67
2022/07/20 06:32:30;;;;;;;8.40;1.50;;;;;;;24.13;42.65;100870.34;5589918;31;33945;-68
2022/07/20 06:35:33;;;;;;;5.37;1.50;;;;;;;24.16;42.66;100880.72;5589852;31;34106;-67
2022/07/20 06:38:38;;;;;;;6.78;1.92;;;;;;;24.34;42.57;100876.97;5590124;31;35220;-69
2022/07/20 06:41:42;;;;;;;7.62;1.70;;;;;;;24.44;42.10;100870.87;5576540;31;34026;-69
2022/07/20 06:44:44;;;;;;;6.03;1.87;;;;;;;24.72;41.69;100868.06;5590282;31;34162;-69
2022/07/20 06:47:49;;;;;;;10.38;2.00;;;;;;;24.99;41.16;100868.19;5589439;31;33847;-69
2022/07/20 06:50:52;;;;;;;5.62;1.92;;;;;;;25.05;40.92;100864.47;5589438;31;34111;-68
2022/07/20 06:53:54;;;;;;;10.73;2.10;;;;;;;25.14;40.39;100867.56;5589809;31;34627;-68
2022/07/20 06:56:58;;;;;;;5.80;1.80;;;;;;;25.21;39.87;100862.78;5589260;31;34081;-68
2022/07/20 07:00:01;;;;;;;9.35;2.10;;;;;;;25.35;39.68;100861.34;5590090;31;34718;-69
2022/07/20 07:03:05;;;;;;;5.32;2.08;;;;;;;25.57;38.88;100861.31;5590058;31;34028;-69
2022/07/20 07:06:11;;;;;;;5.95;1.90;;;;;;;25.96;39.19;100869.09;5589836;31;33441;-69
2022/07/20 07:09:14;;;;;;;4.75;1.55;;;;;;;26.28;38.55;100857.44;5590363;31;34353;-69
2022/07/20 07:12:19;;;;;;;8.45;1.85;;;;;;;26.59;37.36;100851.13;5588958;31;34065;-69
2022/07/20 07:15:21;;;;;;;5.82;1.62;;;;;;;26.99;36.67;100853.31;5589659;31;34157;-68
2022/07/20 07:18:28;;;;;;;9.10;2.15;;;;;;;27.23;35.96;100850.97;5589681;31;34376;-68
2022/07/20 07:21:30;;;;;;;4.32;1.48;;;;;;;27.32;35.60;100856.72;5576045;31;35200;-68
2022/07/20 07:24:33;;;;;;;6.97;1.70;;;;;;;27.49;36.03;100847.28;5589312;31;34584;-68
2022/07/20 07:27:36;;;;;;;6.78;1.45;;;;;;;27.89;34.89;100851.16;5588541;31;34000;-68
2022/07/20 07:30:39;;;;;;;6.70;1.70;;;;;;;28.28;34.24;100849.59;5589462;31;35225;-68
2022/07/20 07:33:41;;;;;;;8.48;1.60;;;;;;;28.52;33.19;100855.28;5589529;31;33851;-69
2022/07/20 07:36:44;;;;;;;3.12;1.17;;;;;;;29.21;32.01;100854.59;5588936;31;33891;-69
2022/07/20 07:39:50;;;;;;;3.92;1.55;;;;;;;30.27;31.55;100856.72;5589328;31;34161;-69
2022/07/20 07:42:53;;;;;;;7.57;1.67;;;;;;;30.65;29.91;100855.03;5588412;31;34032;-69
2022/07/20 07:45:55;;;;;;;7.37;2.08;;;;;;;31.50;28.49;100847.72;5588920;31;35472;-69
2022/07/20 07:49:01;;;;;;;7.18;1.95;;;;;;;31.43;28.68;100843.69;5588453;31;32725;-70
2022/07/20 07:52:04;;;;;;;5.45;1.55;;;;;;;32.23;28.35;100844.47;5588556;31;33891;-69
2022/07/20 07:55:07;;;;;;;7.03;1.60;;;;;;;32.76;27.86;100841.34;5589033;31;35212;-70
2022/07/20 07:58:11;;;;;;;7.90;1.50;;;;;;;33.68;25.60;100841.06;5588356;31;34073;-69
2022/07/20 08:01:14;;;;;;;13.18;1.60;;;;;;;34.50;25.00;100843.47;5589299;31;34184;-68
2022/07/20 08:04:17;;;;;;;6.65;1.50;;;;;;;35.21;23.92;100834.03;5589553;31;35223;-68
2022/07/20 08:07:20;;;;;;;5.62;1.23;;;;;;;35.19;24.07;100836.31;5589585;31;34394;-69
2022/07/20 08:10:23;;;;;;;3.55;1.17;;;;;;;34.50;23.33;100831.62;5589142;31;34684;-69
2022/07/20 08:13:27;;;;;;;5.93;1.30;;;;;;;34.80;22.81;100833.56;5589082;31;33997;-68
2022/07/20 08:16:32;;;;;;;6.22;1.10;;;;;;;34.56;23.17;100831.19;5588960;31;34303;-69
2022/07/20 08:19:35;;;;;;;4.22;1.42;;;;;;;36.21;20.87;100839.47;5588503;31;34654;-68
2022/07/20 08:22:38;;;;;;;4.30;1.40;;;;;;;36.58;20.48;100829.59;5589007;31;34039;-69
2022/07/20 08:25:41;;;;;;;2.28;0.98;;;;;;;37.22;19.98;100822.03;5588470;31;33421;-69
2022/07/20 08:28:44;;;;;;;10.52;1.20;;;;;;;37.22;19.35;100822.03;5575530;31;33205;-69
2022/07/20 08:31:47;;;;;;;6.40;1.20;;;;;;;37.12;19.40;100833.47;5575083;31;33406;-70
2022/07/20 08:34:51;;;;;;;5.28;1.33;;;;;;;37.55;19.38;100840.69;5561354;31;33733;-69
2022/07/20 08:37:53;;;;;;;2.85;1.17;;;;;;;38.49;18.36;100828.72;5588907;31;33940;-69
2022/07/20 08:40:57;;;;;;;9.82;1.42;;;;;;;38.91;17.85;100831.34;5589078;31;34039;-68
2022/07/20 08:44:00;;;;;;;7.43;1.35;;;;;;;38.61;19.12;100823.22;5588903;31;33992;-69
2022/07/20 08:47:03;;;;;;;6.05;1.60;;;;;;;39.27;18.90;100825.72;5588581;31;34575;-69
2022/07/20 08:50:06;;;;;;;11.18;1.73;;;;;;;38.95;19.25;100829.47;5588359;31;34712;-69
2022/07/20 08:53:09;;;;;;;2.55;1.27;;;;;;;40.25;18.11;100829.03;5587812;31;34289;-68
2022/07/20 08:56:18;;;;;;;5.18;1.20;;;;;;;40.25;16.68;100829.03;5587845;31;33281;-69
2022/07/20 08:59:22;;;;;;;4.95;1.30;;;;;;;40.00;16.40;100817.19;5574892;31;34133;-68
2022/07/20 09:02:24;;;;;;;4.97;1.20;;;;;;;40.41;15.92;100815.97;5587950;31;33908;-68
2022/07/20 09:05:31;;;;;;;2.10;1.17;;;;;;;40.30;15.75;100812.09;5588073;31;34381;-69
2022/07/20 09:08:34;;;;;;;4.57;1.15;;;;;;;40.56;15.15;100815.16;5587644;31;32202;-68
2022/07/20 09:11:45;;;;;;;10.52;1.30;;;;;;;40.14;16.31;100812.03;5588394;31;34013;-68
2022/07/20 09:14:48;;;;;;;8.57;1.20;;;;;;;41.78;15.81;100802.87;5587374;31;33971;-67
2022/07/20 09:18:13;;;;;;;6.97;1.40;;;;;;;42.98;14.97;100812.59;5574534;31;32767;-68
2022/07/20 09:21:29;;;;;;;16.37;1.70;;;;;;;42.68;14.76;100810.53;5587294;31;32695;-68
2022/07/20 09:24:33;;;;;;;;;;;;;;;42.34;14.87;100806.75;5587360;31;35050;-67
2022/07/20 09:27:36;;;;;;;4.40;0.88;;;;;;;43.12;15.22;100796.87;5588241;31;34587;-67
2022/07/20 09:30:52;;;;;;;6.35;1.35;;;;;;;42.76;14.17;100798.31;5587416;31;34793;-68
2022/07/20 09:33:58;;;;;;;3.10;1.20;;;;;;;42.27;14.88;100791.88;5587975;31;34392;-67
2022/07/20 09:37:15;;;;;;;5.70;2.33;;;;;;;42.55;15.41;100783.19;5589898;31;32806;-67
2022/07/20 09:40:18;;;;;;;;;;;;;;;43.13;14.51;100784.53;5577266;31;34284;-68
2022/07/20 09:43:31;;;;;;;3.72;1.30;;;;;;;44.50;13.92;100780.88;5591193;31;33438;-68
2022/07/20 09:46:36;;;;;;;5.57;1.00;;;;;;;45.82;13.50;100777.66;5589883;31;33529;-68
2022/07/20 09:49:41;;;;;;;2.85;1.40;;;;;;;46.16;12.26;100781.75;5589449;31;34425;-67
2022/07/20 09:52:43;;;;;;;5.75;1.25;;;;;;;46.24;12.61;100769.31;5590493;31;34085;-68
2022/07/20 09:55:48;;;;;;;4.57;1.30;;;;;;;41.72;15.10;100762.53;5589496;31;32690;-68
2022/07/20 09:59:04;;;;;;;7.43;1.48;;;;;;;43.47;14.40;100768.63;5590223;31;34394;-68
2022/07/20 10:02:08;;;;;;;4.70;1.50;;;;;;;43.37;14.03;100762.87;5576860;31;34842;-69
2022/07/20 10:05:14;;;;;;;5.82;1.40;;;;;;;43.54;15.08;100771.50;5590503;31;34052;-69
2022/07/20 10:08:17;;;;;;;4.72;1.50;;;;;;;44.67;13.71;100752.25;5563911;31;32977;-69
2022/07/20 10:11:23;;;;;;;4.68;1.60;;;;;;;44.88;12.98;100757.97;5589728;31;34659;-69
2022/07/20 10:14:27;;;;;;;6.85;1.45;;;;;;;45.45;13.04;100754.72;5590405;31;34285;-69
2022/07/20 10:17:31;;;;;;;5.40;1.73;;;;;;;45.26;12.68;100753.81;5590337;31;33956;-70
2022/07/20 10:20:36;;;;;;;3.70;1.60;;;;;;;46.28;11.99;100744.09;5589161;31;32813;-72
2022/07/20 10:23:39;;;;;;;4.78;1.52;;;;;;;47.48;11.23;100749.44;5590517;31;33921;-70
2022/07/20 10:26:43;;;;;;;6.72;1.70;;;;;;;45.60;12.11;100745.97;5590362;31;33930;-71
2022/07/20 10:29:47;;;;;;;4.45;1.35;;;;;;;45.83;12.14;100740.00;5590702;31;34007;-70
2022/07/20 10:32:53;;;;;;;9.20;1.80;;;;;;;46.14;12.28;100738.44;5589835;31;34642;-70
2022/07/20 10:36:41;;;;;;;2.62;1.17;;;;;;;47.14;11.75;100739.94;5589569;31;34638;-70
2022/07/20 10:39:39;;;;;;;5.43;1.73;;;;;;;45.04;12.59;100726.09;5590053;31;34619;-71
2022/07/20 10:42:53;;;;;;;9.13;2.03;;;;;;;45.60;11.68;100722.72;5590186;31;35249;-70
2022/07/20 10:45:55;;;;;;;7.95;2.00;;;;;;;47.23;11.79;100726.25;5589420;31;33924;-71
2022/07/20 10:48:58;;;;;;;3.33;1.30;;;;;;;46.88;11.75;100715.91;5589565;31;35185;-71
2022/07/20 10:52:27;;;;;;;2.62;1.40;;;;;;;46.07;11.28;100716.00;5589094;31;33111;-72
2022/07/20 10:55:35;;;;;;;3.05;1.30;;;;;;;45.86;12.54;100705.56;5576280;31;32653;-71
2022/07/20 10:58:42;;;;;;;3.83;1.40;;;;;;;46.16;11.01;100708.00;5590666;31;33228;-73
2022/07/20 11:01:45;;;;;;;4.95;1.40;;;;;;;47.75;10.19;100713.12;5590155;31;34018;-68
2022/07/20 11:04:48;;;;;;;6.85;1.65;;;;;;;47.20;10.84;100709.41;5590473;31;34061;-70
2022/07/20 11:08:04;;;;;;;2.42;1.30;;;;;;;48.41;10.66;100696.16;5589906;31;34025;-71
2022/07/20 11:11:14;;;;;;;4.20;1.33;;;;;;;49.40;9.56;100694.97;5589985;31;34620;-71
2022/07/20 11:14:17;;;;;;;3.40;1.45;;;;;;;48.14;9.93;100681.09;5589329;31;32452;-70
2022/07/20 11:17:20;;;;;;;4.90;1.20;;;;;;;47.75;10.54;100687.81;5589382;31;33388;-71
2022/07/20 11:20:24;;;;;;;6.85;1.45;;;;;;;47.22;10.36;100679.66;5588924;31;32862;-70
2022/07/20 11:23:37;;;;;;;4.75;1.40;;;;;;;47.45;10.60;100684.78;5589106;31;32644;-71
2022/07/20 11:26:39;;;;;;;3.33;1.40;;;;;;;48.32;10.56;100681.69;5590035;31;33952;-71
2022/07/20 11:29:49;;;;;;;6.90;1.98;;;;;;;48.33;9.59;100675.69;5589479;31;34068;-70
2022/07/20 11:32:55;;;;;;;2.65;1.27;;;;;;;48.82;10.40;100669.94;5575938;31;32519;-71
2022/07/20 11:36:07;;;;;;;5.70;1.30;;;;;;;48.70;9.04;100663.66;5588622;31;32689;-70
2022/07/20 11:39:11;;;;;;;8.98;1.60;;;;;;;49.07;9.66;100678.91;5576086;31;32948;-70
2022/07/20 11:42:18;;;;;;;4.78;1.50;;;;;;;48.38;10.68;100674.44;5588873;31;34085;-71
2022/07/20 11:45:26;;;;;;;1.60;1.17;;;;;;;48.55;9.96;100664.22;5589646;31;33963;-70
2022/07/20 11:48:29;;;;;;;4.05;1.48;;;;;;;47.33;9.73;100674.03;5576295;31;33840;-69
2022/07/20 11:51:58;;;;;;;2.03;1.30;;;;;;;46.98;10.98;100666.56;5589093;31;34260;-69
2022/07/20 11:55:01;;;;;;;4.10;1.10;;;;;;;46.29;10.21;100653.06;5588556;31;33711;-71
2022/07/20 11:58:04;;;;;;;2.58;1.10;;;;;;;49.61;9.40;100646.72;5588254;31;32441;-70
2022/07/20 12:01:10;;;;;;;5.18;1.17;;;;;;;49.72;8.95;100646.56;5588786;31;32811;-71
2022/07/20 12:04:27;;;;;;;2.35;1.25;;;;;;;50.64;8.44;100642.09;5588812;31;34409;-72
2022/07/20 12:11:06;;;;;;;6.12;1.27;;;;;;;52.52;7.19;100640.37;5589028;31;32417;-71
2022/07/20 12:14:09;;;;;;;6.03;1.30;;;;;;;51.15;7.79;100637.78;5589405;31;33968;-71
2022/07/20 12:17:32;;;;;;;7.03;1.30;;;;;;;49.88;8.32;100624.13;5588677;31;33873;-71
2022/07/20 12:20:35;;;;;;;2.65;1.30;;;;;;;49.31;8.86;100632.66;5588282;31;32899;-72
2022/07/20 12:23:38;;;;;;;5.12;1.35;;;;;;;49.82;8.40;100633.53;5589327;31;34025;-71
2022/07/20 12:26:43;;;;;;;2.47;0.98;;;;;;;50.72;7.59;100629.38;5588747;31;33605;-71
2022/07/20 12:29:47;;;;;;;2.20;1.15;;;;;;;49.53;8.35;100621.91;5588665;31;33405;-72
2022/07/20 12:33:10;;;;;;;3.75;1.33;;;;;;;49.51;8.54;100616.66;5589149;31;34402;-72
2022/07/20 12:36:13;;;;;;;4.10;1.52;;;;;;;49.58;8.18;100615.75;5588311;31;32649;-71
2022/07/20 12:39:40;;;;;;;2.50;1.30;;;;;;;49.60;8.78;100611.28;5589096;31;34010;-72
2022/07/20 12:42:43;;;;;;;2.92;1.30;;;;;;;51.41;7.40;100613.34;5588236;31;33957;-72
2022/07/20 12:45:46;;;;;;;2.17;1.30;;;;;;;52.31;6.96;100609.81;5588005;31;33675;-71
2022/07/20 12:48:52;;;;;;;4.30;1.20;;;;;;;51.27;7.82;100617.28;5589557;31;35290;-72
2022/07/20 12:51:58;;;;;;;2.70;1.10;;;;;;;51.14;7.84;100615.59;5588984;31;33881;-71
2022/07/20 12:55:02;;;;;;;2.12;1.17;;;;;;;50.96;7.62;100601.06;5588903;31;33930;-72
2022/07/20 12:58:05;;;;;;;2.95;1.10;;;;;;;50.11;8.27;100603.59;5588198;31;33277;-74
2022/07/20 13:01:11;;;;;;;4.53;1.60;;;;;;;47.74;9.14;100598.25;5589259;31;34636;-70
2022/07/20 13:04:19;;;;;;;2.37;1.17;;;;;;;49.88;8.24;100592.28;5588772;31;34011;-71
2022/07/20 13:07:22;;;;;;;7.50;1.37;;;;;;;51.06;7.61;100592.31;5588856;31;34009;-72
2022/07/20 13:10:25;;;;;;;3.25;1.17;;;;;;;49.88;8.19;100584.62;5586931;31;32986;-72
2022/07/20 13:13:28;;;;;;;2.53;1.27;;;;;;;50.00;8.02;100584.00;5587755;31;33663;-71
2022/07/20 13:16:32;;;;;;;1.67;1.20;;;;;;;50.27;7.90;100571.81;5588702;31;33938;-70
2022/07/20 13:19:36;;;;;;;3.92;1.00;;;;;;;49.04;8.50;100579.13;5587538;31;32451;-72
2022/07/20 13:22:46;;;;;;;4.37;1.10;;;;;;;50.87;7.65;100576.22;5588526;31;34000;-71
2022/07/20 13:25:49;;;;;;;6.32;1.35;;;;;;;52.80;6.71;100568.72;5587740;31;33696;-71
2022/07/20 13:28:52;;;;;;;3.70;1.27;;;;;;;54.29;5.91;100582.75;5587231;31;33752;-70
2022/07/20 13:31:56;;;;;;;4.70;1.20;;;;;;;54.09;5.80;100577.41;5587894;31;33912;-70
2022/07/20 13:34:59;;;;;;;3.72;1.20;;;;;;;54.52;6.39;100579.44;5587292;31;33873;-70
2022/07/20 13:38:03;;;;;;;2.33;1.20;;;;;;;53.57;6.41;100572.31;5587211;31;32732;-71
2022/07/20 13:41:06;;;;;;;2.50;1.40;;;;;;;53.96;6.27;100568.13;5586777;31;32562;-69
2022/07/20 13:44:09;;;;;;;2.05;1.40;;;;;;;51.52;7.37;100560.13;5587901;31;34004;-72
2022/07/20 13:47:12;;;;;;;9.18;1.45;;;;;;;51.29;7.35;100568.78;5574051;31;33558;-71
2022/07/20 13:50:18;;;;;;;1.60;1.30;;;;;;;51.83;7.36;100552.06;5586939;31;33924;-71
2022/07/20 13:53:22;;;;;;;3.50;1.35;;;;;;;52.00;6.97;100547.19;5587637;31;34617;-70
2022/07/20 13:56:30;;;;;;;2.40;1.23;;;;;;;49.79;8.19;100539.25;5586666;31;35181;-71
2022/07/20 13:59:33;;;;;;;4.40;1.30;;;;;;;50.73;7.39;100551.09;5586415;31;34179;-71
2022/07/20 14:02:36;;;;;;;7.40;1.37;;;;;;;52.36;6.90;100536.44;5586746;31;33923;-69
2022/07/20 14:05:39;;;;;;;8.00;1.30;;;;;;;51.00;7.40;100534.72;5587376;31;34199;-71
2022/07/20 14:08:42;;;;;;;3.78;1.20;;;;;;;50.75;7.45;100540.94;5586643;31;33193;-70
2022/07/20 14:11:45;;;;;;;2.55;1.23;;;;;;;49.53;8.30;100532.44;5587336;31;34005;-72
2022/07/20 14:14:48;;;;;;;6.72;1.48;;;;;;;51.39;7.19;100530.97;5585346;31;33275;-71
2022/07/20 14:17:51;;;;;;;3.30;1.30;;;;;;;51.64;7.07;100525.47;5586864;31;35243;-71
2022/07/20 14:20:54;;;;;;;4.78;1.25;;;;;;;49.89;8.04;100529.78;5586727;31;32830;-69
2022/07/20 14:24:16;;;;;;;4.18;1.20;;;;;;;47.90;9.02;100506.47;5588773;31;32931;-71
2022/07/20 14:27:22;;;;;;;5.65;1.50;;;;;;;48.39;8.62;100506.34;5589651;31;34415;-70
2022/07/20 14:30:25;;;;;;;5.47;1.10;;;;;;;43.20;12.07;100502.56;5588849;31;33771;-70